首页
METAR-TAF:

METAR-TAF

机场 :

Kimble County Airport

Junction, 得克萨斯州, 美国

纬度: 30-30-39N, 经度: 099-45-59W, 海拔: 527米

当前天气观测

该预报发布于14分钟前的16:51 UTC
风速5节,风向
温度 31°C
湿度 63%
气压 1017 hPa
能見度: 16.1公里
少量云层高于4500英尺

METAR: KJCT 241651Z AUTO 17005KT 10SM FEW045 31/23 A3003 RMK AO2 SLP127 T03110228

时间: 12:05 (17:05 UTC)

预报

该预报发布于5小时和45分钟前的11:20 UTC
预报有效从24日的 12点(UTC)到 25日的 12点(UTC)
风速节,风向
能見度: 10公里
少量云层高于25000英尺
从 24日的 1600点(UTC)
风速4节,风向多变
能見度: 10公里
少量云层高于25000英尺
从 24日的 2200点(UTC)
风速7节,风向南转南东
能見度: 10公里
少量云层高于25000英尺

TAF: KJCT 241120Z 2412/2512 00000KT P6SM FEW250 FM241600 VRB04KT P6SM FEW250 FM242200 15007KT P6SM FEW250

超过4000个机场的气象观测和天气预报(METAR&TAF报告)。

可查询的气象台以黄色和红色小点在地图上表示。

将鼠标移到小点上方,可查看气象台名称。

然后点击查看天气观测和预报。

如需切换地图:点击带黑十字的绿色按钮放大地图;点击带横线的绿色按钮缩小地图;或者点击绿色箭头查看邻近地区的地图。


METAR-TAF: